sensor_id;sensor_type;location;lat;lon;timestamp;pressure;altitude;pressure_sealevel;temperature
85096;BMP280;75436;53.502;10.030;2024-02-28T00:01:23;101760.66;;;3.54
85096;BMP280;75436;53.502;10.030;2024-02-28T00:03:48;101769.00;;;3.56
85096;BMP280;75436;53.502;10.030;2024-02-28T00:06:16;101771.16;;;3.64
85096;BMP280;75436;53.502;10.030;2024-02-28T00:08:42;101774.81;;;3.63
85096;BMP280;75436;53.502;10.030;2024-02-28T00:11:07;101742.56;;;3.59
85096;BMP280;75436;53.502;10.030;2024-02-28T00:13:33;101750.91;;;3.61
85096;BMP280;75436;53.502;10.030;2024-02-28T00:15:58;101742.25;;;3.56
85096;BMP280;75436;53.502;10.030;2024-02-28T00:18:23;101746.09;;;3.53
85096;BMP280;75436;53.502;10.030;2024-02-28T00:20:49;101739.31;;;3.52
85096;BMP280;75436;53.502;10.030;2024-02-28T00:23:14;101730.75;;;3.52
85096;BMP280;75436;53.502;10.030;2024-02-28T00:25:39;101726.81;;;3.49
85096;BMP280;75436;53.502;10.030;2024-02-28T00:28:05;101704.06;;;3.56
85096;BMP280;75436;53.502;10.030;2024-02-28T00:30:30;101716.22;;;3.51
85096;BMP280;75436;53.502;10.030;2024-02-28T00:32:57;101728.25;;;3.40
85096;BMP280;75436;53.502;10.030;2024-02-28T00:35:22;101722.75;;;3.37
85096;BMP280;75436;53.502;10.030;2024-02-28T00:37:48;101726.38;;;3.36
85096;BMP280;75436;53.502;10.030;2024-02-28T00:40:13;101701.38;;;3.30
85096;BMP280;75436;53.502;10.030;2024-02-28T00:42:38;101687.34;;;3.31
85096;BMP280;75436;53.502;10.030;2024-02-28T00:45:04;101681.06;;;3.27
85096;BMP280;75436;53.502;10.030;2024-02-28T00:47:30;101687.66;;;3.18
85096;BMP280;75436;53.502;10.030;2024-02-28T00:49:55;101689.25;;;3.19
85096;BMP280;75436;53.502;10.030;2024-02-28T00:52:22;101696.41;;;3.12
85096;BMP280;75436;53.502;10.030;2024-02-28T00:54:49;101687.78;;;3.07
85096;BMP280;75436;53.502;10.030;2024-02-28T00:57:15;101682.03;;;3.05
85096;BMP280;75436;53.502;10.030;2024-02-28T00:59:40;101673.16;;;3.01
85096;BMP280;75436;53.502;10.030;2024-02-28T01:02:05;101679.38;;;3.00
85096;BMP280;75436;53.502;10.030;2024-02-28T01:04:32;101679.38;;;3.00
85096;BMP280;75436;53.502;10.030;2024-02-28T01:06:57;101668.75;;;3.01
85096;BMP280;75436;53.502;10.030;2024-02-28T01:09:22;101661.28;;;3.05
85096;BMP280;75436;53.502;10.030;2024-02-28T01:11:48;101663.66;;;3.06
85096;BMP280;75436;53.502;10.030;2024-02-28T01:14:13;101656.72;;;3.12
85096;BMP280;75436;53.502;10.030;2024-02-28T01:16:38;101659.84;;;3.14
85096;BMP280;75436;53.502;10.030;2024-02-28T01:19:04;101673.78;;;3.08
85096;BMP280;75436;53.502;10.030;2024-02-28T01:21:29;101675.38;;;3.09
85096;BMP280;75436;53.502;10.030;2024-02-28T01:23:55;101660.81;;;3.08
85096;BMP280;75436;53.502;10.030;2024-02-28T01:26:20;101681.88;;;3.11
85096;BMP280;75436;53.502;10.030;2024-02-28T01:28:47;101665.53;;;3.11
85096;BMP280;75436;53.502;10.030;2024-02-28T01:31:13;101644.38;;;3.19
85096;BMP280;75436;53.502;10.030;2024-02-28T01:33:39;101662.97;;;3.16
85096;BMP280;75436;53.502;10.030;2024-02-28T01:36:06;101668.78;;;3.23
85096;BMP280;75436;53.502;10.030;2024-02-28T01:38:32;101670.06;;;3.20
85096;BMP280;75436;53.502;10.030;2024-02-28T01:40:57;101662.03;;;3.22
85096;BMP280;75436;53.502;10.030;2024-02-28T01:43:23;101674.69;;;3.18
85096;BMP280;75436;53.502;10.030;2024-02-28T01:45:49;101677.00;;;3.15
85096;BMP280;75436;53.502;10.030;2024-02-28T01:48:15;101682.19;;;3.15
85096;BMP280;75436;53.502;10.030;2024-02-28T01:50:41;101654.66;;;3.14
85096;BMP280;75436;53.502;10.030;2024-02-28T01:53:08;101649.22;;;3.15
85096;BMP280;75436;53.502;10.030;2024-02-28T01:55:36;101677.00;;;3.15
85096;BMP280;75436;53.502;10.030;2024-02-28T01:58:04;101664.44;;;3.07
85096;BMP280;75436;53.502;10.030;2024-02-28T02:00:32;101658.69;;;3.05
85096;BMP280;75436;53.502;10.030;2024-02-28T02:03:00;101642.56;;;3.03
85096;BMP280;75436;53.502;10.030;2024-02-28T02:05:26;101636.13;;;3.05
85096;BMP280;75436;53.502;10.030;2024-02-28T02:07:51;101636.59;;;3.02
85096;BMP280;75436;53.502;10.030;2024-02-28T02:10:17;101637.53;;;3.13
85096;BMP280;75436;53.502;10.030;2024-02-28T02:12:43;101634.84;;;3.08
85096;BMP280;75436;53.502;10.030;2024-02-28T02:15:08;101648.38;;;3.10
85096;BMP280;75436;53.502;10.030;2024-02-28T02:17:34;101674.25;;;3.05
85096;BMP280;75436;53.502;10.030;2024-02-28T02:19:59;101676.84;;;3.05
85096;BMP280;75436;53.502;10.030;2024-02-28T02:22:27;101677.72;;;3.10
85096;BMP280;75436;53.502;10.030;2024-02-28T02:24:57;101676.50;;;3.18
85096;BMP280;75436;53.502;10.030;2024-02-28T02:27:24;101682.19;;;3.15
85096;BMP280;75436;53.502;10.030;2024-02-28T02:29:51;101672.66;;;3.20
85096;BMP280;75436;53.502;10.030;2024-02-28T02:32:16;101684.28;;;3.18
85096;BMP280;75436;53.502;10.030;2024-02-28T02:34:41;101684.06;;;3.19
85096;BMP280;75436;53.502;10.030;2024-02-28T02:37:07;101678.09;;;3.19
85096;BMP280;75436;53.502;10.030;2024-02-28T02:39:34;101669.28;;;3.20
85096;BMP280;75436;53.502;10.030;2024-02-28T02:41:59;101669.59;;;3.23
85096;BMP280;75436;53.502;10.030;2024-02-28T02:44:25;101669.13;;;3.26
85096;BMP280;75436;53.502;10.030;2024-02-28T02:46:50;101697.28;;;3.18
85096;BMP280;75436;53.502;10.030;2024-02-28T02:49:16;101703.91;;;3.25
85096;BMP280;75436;53.502;10.030;2024-02-28T02:51:43;101720.53;;;3.29
85096;BMP280;75436;53.502;10.030;2024-02-28T02:54:08;101710.81;;;3.20
85096;BMP280;75436;53.502;10.030;2024-02-28T02:56:34;101715.50;;;3.23
85096;BMP280;75436;53.502;10.030;2024-02-28T02:58:59;101727.84;;;3.16
85096;BMP280;75436;53.502;10.030;2024-02-28T03:01:24;101722.22;;;3.19
85096;BMP280;75436;53.502;10.030;2024-02-28T03:03:50;101713.16;;;3.21
85096;BMP280;75436;53.502;10.030;2024-02-28T03:06:15;101713.31;;;3.15
85096;BMP280;75436;53.502;10.030;2024-02-28T03:08:41;101713.81;;;3.12
85096;BMP280;75436;53.502;10.030;2024-02-28T03:11:06;101705.03;;;3.13
85096;BMP280;75436;53.502;10.030;2024-02-28T03:13:33;101708.88;;;3.10
85096;BMP280;75436;53.502;10.030;2024-02-28T03:15:59;101707.06;;;3.11
85096;BMP280;75436;53.502;10.030;2024-02-28T03:18:24;101703.13;;;3.08
85096;BMP280;75436;53.502;10.030;2024-02-28T03:20:50;101727.94;;;3.21
85096;BMP280;75436;53.502;10.030;2024-02-28T03:23:15;101733.78;;;3.11
85096;BMP280;75436;53.502;10.030;2024-02-28T03:25:40;101721.59;;;3.12
85096;BMP280;75436;53.502;10.030;2024-02-28T03:28:06;101724.19;;;3.12
85096;BMP280;75436;53.502;10.030;2024-02-28T03:30:31;101719.41;;;3.04
85096;BMP280;75436;53.502;10.030;2024-02-28T03:32:57;101709.03;;;3.04
85096;BMP280;75436;53.502;10.030;2024-02-28T03:35:22;101701.53;;;3.07
85096;BMP280;75436;53.502;10.030;2024-02-28T03:37:47;101706.19;;;3.05
85096;BMP280;75436;53.502;10.030;2024-02-28T03:40:13;101711.63;;;3.04
85096;BMP280;75436;53.502;10.030;2024-02-28T03:42:40;101713.72;;;3.07
85096;BMP280;75436;53.502;10.030;2024-02-28T03:45:05;101707.50;;;3.08
85096;BMP280;75436;53.502;10.030;2024-02-28T03:47:31;101704.34;;;3.06
85096;BMP280;75436;53.502;10.030;2024-02-28T03:49:56;101692.75;;;3.08
85096;BMP280;75436;53.502;10.030;2024-02-28T03:52:23;101693.81;;;3.12
85096;BMP280;75436;53.502;10.030;2024-02-28T03:54:48;101694.91;;;3.16
85096;BMP280;75436;53.502;10.030;2024-02-28T03:57:14;101689.81;;;3.21
85096;BMP280;75436;53.502;10.030;2024-02-28T03:59:43;101690.59;;;3.22
85096;BMP280;75436;53.502;10.030;2024-02-28T04:02:09;101683.81;;;3.21
85096;BMP280;75436;53.502;10.030;2024-02-28T04:04:34;101674.53;;;3.25
85096;BMP280;75436;53.502;10.030;2024-02-28T04:07:00;101670.44;;;3.29
85096;BMP280;75436;53.502;10.030;2024-02-28T04:09:25;101666.75;;;3.25
85096;BMP280;75436;53.502;10.030;2024-02-28T04:11:50;101664.09;;;3.20
85096;BMP280;75436;53.502;10.030;2024-02-28T04:14:16;101661.50;;;3.20
85096;BMP280;75436;53.502;10.030;2024-02-28T04:16:42;101657.06;;;3.20
85096;BMP280;75436;53.502;10.030;2024-02-28T04:19:12;101637.34;;;3.19
85096;BMP280;75436;53.502;10.030;2024-02-28T04:21:37;101648.03;;;3.23
85096;BMP280;75436;53.502;10.030;2024-02-28T04:24:04;101643.88;;;3.22
85096;BMP280;75436;53.502;10.030;2024-02-28T04:26:31;101649.56;;;3.19
85096;BMP280;75436;53.502;10.030;2024-02-28T04:28:56;101643.38;;;3.25
85096;BMP280;75436;53.502;10.030;2024-02-28T04:31:22;101651.50;;;3.28
85096;BMP280;75436;53.502;10.030;2024-02-28T04:33:47;101648.97;;;3.33
85096;BMP280;75436;53.502;10.030;2024-02-28T04:36:13;101642.75;;;3.34
85096;BMP280;75436;53.502;10.030;2024-02-28T04:38:39;101649.81;;;3.38
85096;BMP280;75436;53.502;10.030;2024-02-28T04:41:05;101646.47;;;3.38
85096;BMP280;75436;53.502;10.030;2024-02-28T04:43:30;101656.47;;;3.30
85096;BMP280;75436;53.502;10.030;2024-02-28T04:45:55;101652.91;;;3.35
85096;BMP280;75436;53.502;10.030;2024-02-28T04:48:21;101660.28;;;3.27
85096;BMP280;75436;53.502;10.030;2024-02-28T04:50:46;101648.50;;;3.20
85096;BMP280;75436;53.502;10.030;2024-02-28T04:53:13;101648.28;;;3.21
85096;BMP280;75436;53.502;10.030;2024-02-28T04:55:39;101652.06;;;3.14
85096;BMP280;75436;53.502;10.030;2024-02-28T04:58:04;101656.47;;;3.30
85096;BMP280;75436;53.502;10.030;2024-02-28T05:00:29;101653.94;;;3.18
85096;BMP280;75436;53.502;10.030;2024-02-28T05:02:55;101651.66;;;3.22
85096;BMP280;75436;53.502;10.030;2024-02-28T05:05:21;101653.88;;;3.30
85096;BMP280;75436;53.502;10.030;2024-02-28T05:07:46;101644.44;;;3.24
85096;BMP280;75436;53.502;10.030;2024-02-28T05:10:11;101638.91;;;3.20
85096;BMP280;75436;53.502;10.030;2024-02-28T05:12:37;101640.50;;;3.21
85096;BMP280;75436;53.502;10.030;2024-02-28T05:15:03;101629.31;;;3.21
85096;BMP280;75436;53.502;10.030;2024-02-28T05:17:29;101642.53;;;3.19
85096;BMP280;75436;53.502;10.030;2024-02-28T05:19:54;101648.28;;;3.21
85096;BMP280;75436;53.502;10.030;2024-02-28T05:22:22;101634.44;;;3.16
85096;BMP280;75436;53.502;10.030;2024-02-28T05:24:47;101624.94;;;3.21
85096;BMP280;75436;53.502;10.030;2024-02-28T05:27:13;101632.41;;;3.18
85096;BMP280;75436;53.502;10.030;2024-02-28T05:29:38;101624.94;;;3.21
85096;BMP280;75436;53.502;10.030;2024-02-28T05:32:04;101628.53;;;3.20
85096;BMP280;75436;53.502;10.030;2024-02-28T05:34:31;101621.00;;;3.19
85096;BMP280;75436;53.502;10.030;2024-02-28T05:36:56;101615.56;;;3.20
85096;BMP280;75436;53.502;10.030;2024-02-28T05:39:21;101617.38;;;3.20
85096;BMP280;75436;53.502;10.030;2024-02-28T05:41:48;101614.84;;;3.25
85096;BMP280;75436;53.502;10.030;2024-02-28T05:44:13;101620.84;;;3.25
85096;BMP280;75436;53.502;10.030;2024-02-28T05:46:39;101620.69;;;3.32
85096;BMP280;75436;53.502;10.030;2024-02-28T05:49:05;101624.38;;;3.19
85096;BMP280;75436;53.502;10.030;2024-02-28T05:51:30;101619.19;;;3.19
85096;BMP280;75436;53.502;10.030;2024-02-28T05:53:56;101616.13;;;3.06
85096;BMP280;75436;53.502;10.030;2024-02-28T05:56:21;101605.75;;;3.06
85096;BMP280;75436;53.502;10.030;2024-02-28T05:58:47;101610.88;;;3.01
85096;BMP280;75436;53.502;10.030;2024-02-28T06:01:17;101610.56;;;2.98
85096;BMP280;75436;53.502;10.030;2024-02-28T06:03:45;101604.03;;;2.95
85096;BMP280;75436;53.502;10.030;2024-02-28T06:06:13;101590.06;;;2.96
85096;BMP280;75436;53.502;10.030;2024-02-28T06:08:39;101584.38;;;2.99
85096;BMP280;75436;53.502;10.030;2024-02-28T06:11:06;101576.16;;;3.02
85096;BMP280;75436;53.502;10.030;2024-02-28T06:13:32;101580.31;;;3.03
85096;BMP280;75436;53.502;10.030;2024-02-28T06:15:58;101570.06;;;3.13
85096;BMP280;75436;53.502;10.030;2024-02-28T06:18:25;101579.47;;;3.19
85096;BMP280;75436;53.502;10.030;2024-02-28T06:20:56;101597.09;;;3.17
85096;BMP280;75436;53.502;10.030;2024-02-28T06:23:22;101610.06;;;3.17
85096;BMP280;75436;53.502;10.030;2024-02-28T06:25:49;101614.22;;;3.18
85096;BMP280;75436;53.502;10.030;2024-02-28T06:28:15;101605.34;;;3.14
85096;BMP280;75436;53.502;10.030;2024-02-28T06:30:43;101614.22;;;3.18
85096;BMP280;75436;53.502;10.030;2024-02-28T06:33:11;101630.34;;;3.20
85096;BMP280;75436;53.502;10.030;2024-02-28T06:35:38;101632.41;;;3.18
85096;BMP280;75436;53.502;10.030;2024-02-28T06:38:03;101640.25;;;3.23
85096;BMP280;75436;53.502;10.030;2024-02-28T06:40:29;101648.03;;;3.23
85096;BMP280;75436;53.502;10.030;2024-02-28T06:42:55;101659.22;;;3.23
85096;BMP280;75436;53.502;10.030;2024-02-28T06:45:21;101675.09;;;3.27
85096;BMP280;75436;53.502;10.030;2024-02-28T06:47:47;101693.25;;;3.27
85096;BMP280;75436;53.502;10.030;2024-02-28T06:50:13;101686.34;;;3.32
85096;BMP280;75436;53.502;10.030;2024-02-28T06:52:38;101699.00;;;3.29
85096;BMP280;75436;53.502;10.030;2024-02-28T06:55:03;101700.25;;;3.26
85096;BMP280;75436;53.502;10.030;2024-02-28T06:57:37;101693.81;;;3.29
85096;BMP280;75436;53.502;10.030;2024-02-28T07:00:07;101693.03;;;3.28
85096;BMP280;75436;53.502;10.030;2024-02-28T07:02:34;101686.34;;;3.32
85096;BMP280;75436;53.502;10.030;2024-02-28T07:05:00;101692.31;;;3.33
85096;BMP280;75436;53.502;10.030;2024-02-28T07:07:26;101676.81;;;3.37
85096;BMP280;75436;53.502;10.030;2024-02-28T07:09:51;101676.50;;;3.34
85096;BMP280;75436;53.502;10.030;2024-02-28T07:12:17;101685.41;;;3.38
85096;BMP280;75436;53.502;10.030;2024-02-28T07:14:42;101687.91;;;3.33
85096;BMP280;75436;53.502;10.030;2024-02-28T07:17:08;101694.59;;;3.29
85096;BMP280;75436;53.502;10.030;2024-02-28T07:19:33;101692.63;;;3.36
85096;BMP280;75436;53.502;10.030;2024-02-28T07:21:59;101710.00;;;3.35
85096;BMP280;75436;53.502;10.030;2024-02-28T07:24:24;101695.78;;;3.38
85096;BMP280;75436;53.502;10.030;2024-02-28T07:26:49;101714.56;;;3.45
85096;BMP280;75436;53.502;10.030;2024-02-28T07:29:16;101702.13;;;3.47
85096;BMP280;75436;53.502;10.030;2024-02-28T07:31:41;101693.13;;;3.54
85096;BMP280;75436;53.502;10.030;2024-02-28T07:34:07;101713.44;;;3.57
85096;BMP280;75436;53.502;10.030;2024-02-28T07:36:33;101705.53;;;3.68
85096;BMP280;75436;53.502;10.030;2024-02-28T07:38:59;101708.72;;;3.75
85096;BMP280;75436;53.502;10.030;2024-02-28T07:41:24;101720.47;;;3.78
85096;BMP280;75436;53.502;10.030;2024-02-28T07:43:50;101722.69;;;3.91
85096;BMP280;75436;53.502;10.030;2024-02-28T07:46:15;101738.97;;;4.02
85096;BMP280;75436;53.502;10.030;2024-02-28T07:48:40;101736.53;;;4.17
85096;BMP280;75436;53.502;10.030;2024-02-28T07:51:09;101747.16;;;4.16
85096;BMP280;75436;53.502;10.030;2024-02-28T07:53:35;101762.06;;;4.20
85096;BMP280;75436;53.502;10.030;2024-02-28T07:56:00;101764.66;;;4.20
85096;BMP280;75436;53.502;10.030;2024-02-28T07:58:25;101782.53;;;4.43
85096;BMP280;75436;53.502;10.030;2024-02-28T08:00:51;101778.72;;;4.71
85096;BMP280;75436;53.502;10.030;2024-02-28T08:03:19;101834.81;;;4.63
85096;BMP280;75436;53.502;10.030;2024-02-28T08:05:45;101816.19;;;4.49
85096;BMP280;75436;53.502;10.030;2024-02-28T08:08:11;101812.94;;;4.59
85096;BMP280;75436;53.502;10.030;2024-02-28T08:10:37;101822.00;;;4.56
85096;BMP280;75436;53.502;10.030;2024-02-28T08:13:04;101825.06;;;4.53
85096;BMP280;75436;53.502;10.030;2024-02-28T08:15:30;101821.00;;;4.62
85096;BMP280;75436;53.502;10.030;2024-02-28T08:17:55;101826.84;;;4.48
85096;BMP280;75436;53.502;10.030;2024-02-28T08:20:20;101814.69;;;4.79
85096;BMP280;75436;53.502;10.030;2024-02-28T08:22:46;101849.28;;;4.80
85096;BMP280;75436;53.502;10.030;2024-02-28T08:25:16;101836.09;;;4.86
85096;BMP280;75436;53.502;10.030;2024-02-28T08:27:42;101831.50;;;4.93
85096;BMP280;75436;53.502;10.030;2024-02-28T08:30:07;101843.09;;;5.07
85096;BMP280;75436;53.502;10.030;2024-02-28T08:32:33;101866.00;;;5.10
85096;BMP280;75436;53.502;10.030;2024-02-28T08:34:59;101857.03;;;5.27
85096;BMP280;75436;53.502;10.030;2024-02-28T08:37:25;101856.00;;;5.28
85096;BMP280;75436;53.502;10.030;2024-02-28T08:39:52;101859.84;;;5.21
85096;BMP280;75436;53.502;10.030;2024-02-28T08:42:20;101873.97;;;5.29
85096;BMP280;75436;53.502;10.030;2024-02-28T08:44:45;101879.72;;;5.31
85096;BMP280;75436;53.502;10.030;2024-02-28T08:47:13;101888.72;;;5.45
85096;BMP280;75436;53.502;10.030;2024-02-28T08:49:39;101891.00;;;5.73
85096;BMP280;75436;53.502;10.030;2024-02-28T08:52:04;101917.94;;;5.83
85096;BMP280;75436;53.502;10.030;2024-02-28T08:54:30;101944.75;;;6.20
85096;BMP280;75436;53.502;10.030;2024-02-28T08:56:56;101945.00;;;6.18
85096;BMP280;75436;53.502;10.030;2024-02-28T08:59:21;101918.09;;;6.08
85096;BMP280;75436;53.502;10.030;2024-02-28T09:01:47;101946.50;;;6.50
85096;BMP280;75436;53.502;10.030;2024-02-28T09:04:13;101967.97;;;6.67
85096;BMP280;75436;53.502;10.030;2024-02-28T09:06:39;101965.91;;;6.79
85096;BMP280;75436;53.502;10.030;2024-02-28T09:09:04;102006.47;;;7.01
85096;BMP280;75436;53.502;10.030;2024-02-28T09:11:29;102001.84;;;7.37
85096;BMP280;75436;53.502;10.030;2024-02-28T09:13:55;102017.56;;;7.62
85096;BMP280;75436;53.502;10.030;2024-02-28T09:16:20;102048.66;;;8.03
85096;BMP280;75436;53.502;10.030;2024-02-28T09:18:45;102077.16;;;8.14
85096;BMP280;75436;53.502;10.030;2024-02-28T09:21:11;102085.00;;;8.29
85096;BMP280;75436;53.502;10.030;2024-02-28T09:23:36;102079.75;;;8.43
85096;BMP280;75436;53.502;10.030;2024-02-28T09:26:04;102055.22;;;8.00
85096;BMP280;75436;53.502;10.030;2024-02-28T09:28:31;102062.03;;;7.91
85096;BMP280;75436;53.502;10.030;2024-02-28T09:30:56;102032.69;;;7.40
85096;BMP280;75436;53.502;10.030;2024-02-28T09:33:22;102033.69;;;7.34
85096;BMP280;75436;53.502;10.030;2024-02-28T09:35:48;102001.84;;;7.52
85096;BMP280;75436;53.502;10.030;2024-02-28T09:38:13;102020.63;;;7.34
85096;BMP280;75436;53.502;10.030;2024-02-28T09:40:39;102012.81;;;7.49
85096;BMP280;75436;53.502;10.030;2024-02-28T09:43:04;102051.53;;;8.26
85096;BMP280;75436;53.502;10.030;2024-02-28T09:45:30;102095.13;;;9.37
85096;BMP280;75436;53.502;10.030;2024-02-28T09:48:00;102098.94;;;9.49
85096;BMP280;75436;53.502;10.030;2024-02-28T09:50:26;102148.06;;;10.14
85096;BMP280;75436;53.502;10.030;2024-02-28T09:52:52;102152.22;;;11.49
85096;BMP280;75436;53.502;10.030;2024-02-28T09:55:19;102180.00;;;11.60
85096;BMP280;75436;53.502;10.030;2024-02-28T09:57:47;102191.56;;;11.59
85096;BMP280;75436;53.502;10.030;2024-02-28T10:00:16;102185.22;;;11.78
85096;BMP280;75436;53.502;10.030;2024-02-28T10:02:47;102194.59;;;12.02
85096;BMP280;75436;53.502;10.030;2024-02-28T10:05:16;102175.72;;;10.30
85096;BMP280;75436;53.502;10.030;2024-02-28T10:07:47;102157.69;;;9.48
85096;BMP280;75436;53.502;10.030;2024-02-28T10:10:14;102172.44;;;9.82
85096;BMP280;75436;53.502;10.030;2024-02-28T10:12:42;102166.19;;;10.11
85096;BMP280;75436;53.502;10.030;2024-02-28T10:15:09;102152.78;;;10.13
85096;BMP280;75436;53.502;10.030;2024-02-28T10:17:35;102173.31;;;11.08
85096;BMP280;75436;53.502;10.030;2024-02-28T10:20:01;102169.09;;;9.72
85096;BMP280;75436;53.502;10.030;2024-02-28T10:22:34;102154.63;;;9.31
85096;BMP280;75436;53.502;10.030;2024-02-28T10:25:00;102151.84;;;9.18
85096;BMP280;75436;53.502;10.030;2024-02-28T10:27:25;102156.84;;;9.57
85096;BMP280;75436;53.502;10.030;2024-02-28T10:29:51;102160.88;;;9.45
85096;BMP280;75436;53.502;10.030;2024-02-28T10:32:16;102146.19;;;9.44
85096;BMP280;75436;53.502;10.030;2024-02-28T10:34:42;102163.97;;;9.95
85096;BMP280;75436;53.502;10.030;2024-02-28T10:37:09;102176.22;;;10.65
85096;BMP280;75436;53.502;10.030;2024-02-28T10:39:35;102180.72;;;10.83
85096;BMP280;75436;53.502;10.030;2024-02-28T10:42:02;102191.06;;;11.57
85096;BMP280;75436;53.502;10.030;2024-02-28T10:44:29;102191.91;;;11.34
85096;BMP280;75436;53.502;10.030;2024-02-28T10:46:56;102195.47;;;10.56
85096;BMP280;75436;53.502;10.030;2024-02-28T10:49:22;102189.44;;;10.27
85096;BMP280;75436;53.502;10.030;2024-02-28T10:51:49;102178.41;;;9.50
85096;BMP280;75436;53.502;10.030;2024-02-28T10:54:16;102182.41;;;10.18
85096;BMP280;75436;53.502;10.030;2024-02-28T10:56:45;102185.78;;;10.23
85096;BMP280;75436;53.502;10.030;2024-02-28T10:59:11;102179.19;;;10.77
85096;BMP280;75436;53.502;10.030;2024-02-28T11:01:43;102188.88;;;10.81
85096;BMP280;75436;53.502;10.030;2024-02-28T11:04:13;102198.22;;;10.92
85096;BMP280;75436;53.502;10.030;2024-02-28T11:06:54;102177.94;;;10.74
85096;BMP280;75436;53.502;10.030;2024-02-28T11:09:24;102178.63;;;10.29
85096;BMP280;75436;53.502;10.030;2024-02-28T11:11:51;102172.59;;;10.79
85096;BMP280;75436;53.502;10.030;2024-02-28T11:14:17;102164.59;;;10.15
85096;BMP280;75436;53.502;10.030;2024-02-28T11:16:47;102165.13;;;10.12
85096;BMP280;75436;53.502;10.030;2024-02-28T11:19:22;102153.28;;;9.82
85096;BMP280;75436;53.502;10.030;2024-02-28T11:21:54;102165.66;;;9.76
85096;BMP280;75436;53.502;10.030;2024-02-28T11:24:25;102148.19;;;9.62
85096;BMP280;75436;53.502;10.030;2024-02-28T11:26:55;102135.53;;;9.21
85096;BMP280;75436;53.502;10.030;2024-02-28T11:29:25;102131.44;;;9.05
85096;BMP280;75436;53.502;10.030;2024-02-28T11:31:52;102134.66;;;8.83
85096;BMP280;75436;53.502;10.030;2024-02-28T11:34:18;102111.63;;;8.75
85096;BMP280;75436;53.502;10.030;2024-02-28T11:36:50;102110.03;;;8.79
85096;BMP280;75436;53.502;10.030;2024-02-28T11:39:17;102095.69;;;8.62
85096;BMP280;75436;53.502;10.030;2024-02-28T11:41:45;102095.13;;;8.74
85096;BMP280;75436;53.502;10.030;2024-02-28T11:44:15;102092.78;;;8.68
85096;BMP280;75436;53.502;10.030;2024-02-28T11:46:49;102098.81;;;8.73
85096;BMP280;75436;53.502;10.030;2024-02-28T11:49:15;102085.16;;;8.66
85096;BMP280;75436;53.502;10.030;2024-02-28T11:51:42;102080.19;;;8.70
85096;BMP280;75436;53.502;10.030;2024-02-28T11:54:08;102076.81;;;8.65
85096;BMP280;75436;53.502;10.030;2024-02-28T11:56:37;102085.22;;;8.62
85096;BMP280;75436;53.502;10.030;2024-02-28T11:59:04;102069.06;;;8.25
85096;BMP280;75436;53.502;10.030;2024-02-28T12:01:37;102056.63;;;8.70
85096;BMP280;75436;53.502;10.030;2024-02-28T12:04:04;102065.28;;;8.65
85096;BMP280;75436;53.502;10.030;2024-02-28T12:06:35;102068.94;;;8.74
85096;BMP280;75436;53.502;10.030;2024-02-28T12:09:02;102064.03;;;8.38
85096;BMP280;75436;53.502;10.030;2024-02-28T12:11:32;102059.38;;;8.36
85096;BMP280;75436;53.502;10.030;2024-02-28T12:13:57;102060.34;;;8.59
85096;BMP280;75436;53.502;10.030;2024-02-28T12:16:25;102053.53;;;8.63
85096;BMP280;75436;53.502;10.030;2024-02-28T12:18:53;102044.66;;;8.49
85096;BMP280;75436;53.502;10.030;2024-02-28T12:21:20;102056.59;;;8.80
85096;BMP280;75436;53.502;10.030;2024-02-28T12:23:49;102036.66;;;8.89
85096;BMP280;75436;53.502;10.030;2024-02-28T12:26:18;102038.31;;;8.60
85096;BMP280;75436;53.502;10.030;2024-02-28T12:28:44;102033.63;;;8.57
85096;BMP280;75436;53.502;10.030;2024-02-28T12:31:10;102023.31;;;8.75
85096;BMP280;75436;53.502;10.030;2024-02-28T12:33:37;102020.53;;;8.57
85096;BMP280;75436;53.502;10.030;2024-02-28T12:36:03;102024.72;;;8.63
85096;BMP280;75436;53.502;10.030;2024-02-28T12:38:30;102019.50;;;8.53
85096;BMP280;75436;53.502;10.030;2024-02-28T12:40:56;102019.19;;;8.65
85096;BMP280;75436;53.502;10.030;2024-02-28T12:43:22;102018.38;;;8.74
85096;BMP280;75436;53.502;10.030;2024-02-28T12:45:48;102006.38;;;8.58
85096;BMP280;75436;53.502;10.030;2024-02-28T12:48:13;101998.41;;;8.93
85096;BMP280;75436;53.502;10.030;2024-02-28T12:50:38;102012.00;;;8.95
85096;BMP280;75436;53.502;10.030;2024-02-28T12:53:04;101998.00;;;8.56
85096;BMP280;75436;53.502;10.030;2024-02-28T12:55:31;101989.34;;;8.61
85096;BMP280;75436;53.502;10.030;2024-02-28T12:57:56;101974.38;;;8.66
85096;BMP280;75436;53.502;10.030;2024-02-28T13:00:21;101978.41;;;8.49
85096;BMP280;75436;53.502;10.030;2024-02-28T13:02:47;101991.28;;;8.40
85096;BMP280;75436;53.502;10.030;2024-02-28T13:05:12;101990.25;;;8.32
85096;BMP280;75436;53.502;10.030;2024-02-28T13:07:38;101977.13;;;8.41
85096;BMP280;75436;53.502;10.030;2024-02-28T13:10:05;101969.81;;;8.38
85096;BMP280;75436;53.502;10.030;2024-02-28T13:12:31;101976.22;;;8.65
85096;BMP280;75436;53.502;10.030;2024-02-28T13:14:58;101973.34;;;8.72
85096;BMP280;75436;53.502;10.030;2024-02-28T13:17:24;101970.69;;;8.82
85096;BMP280;75436;53.502;10.030;2024-02-28T13:19:50;101971.00;;;8.65
85096;BMP280;75436;53.502;10.030;2024-02-28T13:22:16;101957.41;;;8.64
85096;BMP280;75436;53.502;10.030;2024-02-28T13:24:41;101953.19;;;8.67
85096;BMP280;75436;53.502;10.030;2024-02-28T13:27:07;101950.03;;;8.65
85096;BMP280;75436;53.502;10.030;2024-02-28T13:29:34;101950.56;;;8.67
85096;BMP280;75436;53.502;10.030;2024-02-28T13:32:00;101951.09;;;8.65
85096;BMP280;75436;53.502;10.030;2024-02-28T13:34:27;101946.16;;;8.63
85096;BMP280;75436;53.502;10.030;2024-02-28T13:36:52;101935.41;;;8.60
85096;BMP280;75436;53.502;10.030;2024-02-28T13:39:18;101927.34;;;8.51
85096;BMP280;75436;53.502;10.030;2024-02-28T13:41:43;101937.25;;;8.59
85096;BMP280;75436;53.502;10.030;2024-02-28T13:44:09;101915.75;;;8.67
85096;BMP280;75436;53.502;10.030;2024-02-28T13:46:35;101923.31;;;8.68
85096;BMP280;75436;53.502;10.030;2024-02-28T13:49:01;101916.91;;;8.89
85096;BMP280;75436;53.502;10.030;2024-02-28T13:51:26;101919.06;;;8.82